createdAt,value
2019-03-22T00:00:52.002Z,99.90
2019-03-22T00:03:22.352Z,99.90
2019-03-22T00:05:52.745Z,99.90
2019-03-22T00:08:23.458Z,99.90
2019-03-22T00:10:53.813Z,99.90
2019-03-22T00:13:24.130Z,99.90
2019-03-22T00:15:54.538Z,99.90
2019-03-22T00:18:24.880Z,99.90
2019-03-22T00:20:55.278Z,99.90
2019-03-22T00:23:25.685Z,99.90
2019-03-22T00:25:55.944Z,99.90
2019-03-22T00:28:26.336Z,99.90
2019-03-22T00:30:56.638Z,99.90
2019-03-22T00:33:26.989Z,99.90
2019-03-22T00:35:57.269Z,99.90
2019-03-22T00:38:27.663Z,99.90
2019-03-22T00:40:57.990Z,99.90
2019-03-22T00:43:28.289Z,99.90
2019-03-22T00:45:58.525Z,99.90
2019-03-22T00:48:28.874Z,99.90
2019-03-22T00:50:59.233Z,99.90
2019-03-22T00:53:29.569Z,99.90
2019-03-22T00:55:59.885Z,99.90
2019-03-22T00:58:30.301Z,99.90
2019-03-22T01:01:00.622Z,99.90
2019-03-22T01:03:30.927Z,99.90
2019-03-22T01:06:01.202Z,99.90
2019-03-22T01:08:31.866Z,99.90
2019-03-22T01:11:02.158Z,99.90
2019-03-22T01:13:32.450Z,99.90
2019-03-22T01:16:02.989Z,99.90
2019-03-22T01:18:33.318Z,99.90
2019-03-22T01:21:03.633Z,99.90
2019-03-22T01:23:34.018Z,99.90
2019-03-22T01:26:04.313Z,99.90
2019-03-22T01:28:34.631Z,99.90
2019-03-22T01:31:05.029Z,99.90
2019-03-22T01:33:36.386Z,99.90
2019-03-22T01:36:06.673Z,99.90
2019-03-22T01:38:37.099Z,99.90
2019-03-22T01:41:07.370Z,99.90
2019-03-22T01:43:37.795Z,99.90
2019-03-22T01:46:08.245Z,99.90
2019-03-22T01:48:38.737Z,99.90
2019-03-22T01:51:09.022Z,99.90
2019-03-22T01:53:39.318Z,99.90
2019-03-22T01:56:09.686Z,99.90
2019-03-22T01:58:40.039Z,99.90
2019-03-22T02:01:10.422Z,99.90
2019-03-22T02:03:41.795Z,99.90
2019-03-22T02:06:12.046Z,99.90
2019-03-22T02:08:42.373Z,99.90
2019-03-22T02:11:12.667Z,99.90
2019-03-22T02:13:43.017Z,99.90
2019-03-22T02:16:13.269Z,99.90
2019-03-22T02:18:43.578Z,99.90
2019-03-22T02:21:13.974Z,99.90
2019-03-22T02:23:44.263Z,99.90
2019-03-22T02:26:14.524Z,99.90
2019-03-22T02:28:44.886Z,99.90
2019-03-22T02:31:15.273Z,99.90
2019-03-22T02:33:45.629Z,99.90
2019-03-22T02:36:15.893Z,99.90
2019-03-22T02:38:46.797Z,99.90
2019-03-22T02:41:17.163Z,99.90
2019-03-22T02:43:47.605Z,99.90
2019-03-22T02:46:17.848Z,99.90
2019-03-22T02:48:48.248Z,99.90
2019-03-22T02:51:18.550Z,99.90
2019-03-22T02:53:48.904Z,99.90
2019-03-22T02:56:19.183Z,99.90
2019-03-22T02:58:49.504Z,99.90
2019-03-22T03:01:19.986Z,99.90
2019-03-22T03:03:50.375Z,99.90
2019-03-22T03:06:20.675Z,99.90
2019-03-22T03:08:51.017Z,99.90
2019-03-22T03:11:21.323Z,99.90
2019-03-22T03:13:51.633Z,99.90
2019-03-22T03:16:21.892Z,99.90
2019-03-22T03:18:52.314Z,99.90
2019-03-22T03:21:22.646Z,99.90
2019-03-22T03:23:53.005Z,99.90
2019-03-22T03:26:23.379Z,99.90
2019-03-22T03:28:53.738Z,99.90
2019-03-22T03:31:24.093Z,99.90
2019-03-22T03:33:54.439Z,99.90
2019-03-22T03:36:24.760Z,99.90
2019-03-22T03:38:55.211Z,99.90
2019-03-22T03:41:25.537Z,99.90
2019-03-22T03:43:55.860Z,99.90
2019-03-22T03:46:26.135Z,99.90
2019-03-22T03:48:56.474Z,99.90
2019-03-22T03:51:26.833Z,99.90
2019-03-22T03:53:57.191Z,99.90
2019-03-22T03:56:27.511Z,99.90
2019-03-22T03:58:57.885Z,99.90
2019-03-22T04:01:28.243Z,99.90
2019-03-22T04:03:58.548Z,99.90
2019-03-22T04:06:28.871Z,99.90
2019-03-22T04:08:59.260Z,99.90
2019-03-22T04:11:29.542Z,99.90
2019-03-22T04:13:59.894Z,99.90
2019-03-22T04:16:30.199Z,99.90
2019-03-22T04:19:00.517Z,99.90
2019-03-22T04:21:30.828Z,99.90
2019-03-22T04:24:01.143Z,99.90
2019-03-22T04:26:31.469Z,99.90
2019-03-22T04:29:07.864Z,99.90
2019-03-22T04:31:33.769Z,99.90
2019-03-22T04:34:04.076Z,99.90
2019-03-22T04:36:34.451Z,99.90
2019-03-22T04:39:06.092Z,99.90
2019-03-22T04:41:36.427Z,99.90
2019-03-22T04:44:06.805Z,99.90
2019-03-22T04:46:38.618Z,99.90
2019-03-22T04:49:10.375Z,99.90
2019-03-22T04:51:41.334Z,99.90
2019-03-22T04:54:12.657Z,99.90
2019-03-22T04:56:43.301Z,99.90
2019-03-22T04:59:19.225Z,99.90
2019-03-22T05:01:50.557Z,99.90
2019-03-22T05:04:21.666Z,99.90
2019-03-22T05:06:53.998Z,99.90
2019-03-22T05:09:27.321Z,99.90
2019-03-22T05:11:58.906Z,99.90
2019-03-22T05:14:31.546Z,99.90
2019-03-22T05:17:02.026Z,99.90
2019-03-22T05:19:35.549Z,99.90
2019-03-22T05:22:07.506Z,99.90
2019-03-22T05:24:39.266Z,99.90
2019-03-22T05:27:11.302Z,99.90
2019-03-22T05:29:43.651Z,99.90
2019-03-22T05:32:15.614Z,99.90
2019-03-22T05:34:45.994Z,99.90
2019-03-22T05:37:16.383Z,99.90
2019-03-22T05:39:46.972Z,99.90
2019-03-22T05:42:17.383Z,99.90
2019-03-22T05:44:47.642Z,99.90
2019-03-22T05:47:17.996Z,99.90
2019-03-22T05:49:48.256Z,99.90
2019-03-22T05:52:18.506Z,99.90
2019-03-22T05:54:48.883Z,99.90
2019-03-22T05:57:19.183Z,99.90
2019-03-22T05:59:49.582Z,99.90
2019-03-22T06:02:19.846Z,99.90
2019-03-22T06:04:50.156Z,99.90
2019-03-22T06:07:20.599Z,99.90
2019-03-22T06:09:50.952Z,99.90
2019-03-22T06:12:21.338Z,99.90
2019-03-22T06:14:51.643Z,99.90
2019-03-22T06:17:22.016Z,99.90
2019-03-22T06:19:52.425Z,99.90
2019-03-22T06:22:22.684Z,99.90
2019-03-22T06:24:53.100Z,99.90
2019-03-22T06:27:23.365Z,99.90
2019-03-22T06:29:54.757Z,99.90
2019-03-22T06:32:25.225Z,99.90
2019-03-22T06:34:55.643Z,99.90
2019-03-22T06:37:25.889Z,99.90
2019-03-22T06:39:56.164Z,99.90
2019-03-22T06:42:26.542Z,99.90
2019-03-22T06:44:56.868Z,99.90
2019-03-22T06:47:27.194Z,99.90
2019-03-22T06:49:57.686Z,99.90
2019-03-22T06:52:27.989Z,99.90
2019-03-22T06:54:58.314Z,99.90
2019-03-22T06:57:28.688Z,99.90
2019-03-22T07:00:06.371Z,99.90
2019-03-22T07:02:31.082Z,99.90
2019-03-22T07:05:01.428Z,99.90
2019-03-22T07:07:31.765Z,99.90
2019-03-22T07:10:02.078Z,99.90
2019-03-22T07:12:32.456Z,99.90
2019-03-22T07:15:02.735Z,99.90
2019-03-22T07:17:33.141Z,99.90
2019-03-22T07:20:03.578Z,99.90
2019-03-22T07:22:33.922Z,99.90
2019-03-22T07:25:04.229Z,99.90
2019-03-22T07:27:34.514Z,99.90
2019-03-22T07:30:05.410Z,99.90
2019-03-22T07:32:35.726Z,99.90
2019-03-22T07:35:06.161Z,99.90
2019-03-22T07:37:36.518Z,99.90
2019-03-22T07:40:07.866Z,99.90
2019-03-22T07:42:38.223Z,99.90
2019-03-22T07:45:08.980Z,99.90
2019-03-22T07:47:39.299Z,99.90
2019-03-22T07:50:10.958Z,99.90
2019-03-22T07:52:41.193Z,99.90
2019-03-22T07:55:11.730Z,99.90
2019-03-22T07:57:42.050Z,99.90
2019-03-22T08:00:12.561Z,99.90
2019-03-22T08:02:42.904Z,99.90
2019-03-22T08:05:13.573Z,99.90
2019-03-22T08:07:43.953Z,99.90
2019-03-22T08:10:14.253Z,99.90
2019-03-22T08:12:44.585Z,99.90
2019-03-22T08:15:27.969Z,99.90
2019-03-22T08:17:58.235Z,99.90
2019-03-22T08:20:28.642Z,99.90
2019-03-22T08:22:59.267Z,99.90
2019-03-22T08:25:32.316Z,99.90
2019-03-22T08:28:01.667Z,99.90
2019-03-22T08:30:42.345Z,99.90
2019-03-22T08:33:04.045Z,99.90
2019-03-22T08:35:34.390Z,99.60
2019-03-22T08:38:04.711Z,98.40
2019-03-22T08:40:35.024Z,96.80
2019-03-22T08:43:05.389Z,94.80
2019-03-22T08:45:35.745Z,94.40
2019-03-22T08:48:06.303Z,95.00
2019-03-22T08:50:36.667Z,94.60
2019-03-22T08:53:06.981Z,94.80
2019-03-22T08:55:37.322Z,94.80
2019-03-22T08:58:07.566Z,94.50
2019-03-22T09:00:39.564Z,93.20
2019-03-22T09:03:09.982Z,92.50
2019-03-22T09:05:40.250Z,94.60
2019-03-22T09:08:10.543Z,91.50
2019-03-22T09:10:40.914Z,83.50
2019-03-22T09:13:11.364Z,79.30
2019-03-22T09:15:42.152Z,79.50
2019-03-22T09:18:15.402Z,79.00
2019-03-22T09:20:44.593Z,74.40
2019-03-22T09:23:14.932Z,73.80
2019-03-22T09:25:45.235Z,73.60
2019-03-22T09:28:15.536Z,70.60
2019-03-22T09:30:45.922Z,66.30
2019-03-22T09:33:16.311Z,63.00
2019-03-22T09:35:46.760Z,65.90
2019-03-22T09:38:17.111Z,63.20
2019-03-22T09:40:47.468Z,63.50
2019-03-22T09:43:17.840Z,59.60
2019-03-22T09:45:48.397Z,60.40
2019-03-22T09:48:18.709Z,59.50
2019-03-22T09:50:49.087Z,58.50
2019-03-22T09:53:19.496Z,59.60
2019-03-22T09:55:49.854Z,61.40
2019-03-22T09:58:20.113Z,59.90
2019-03-22T10:00:50.558Z,60.10
2019-03-22T10:03:20.883Z,60.30
2019-03-22T10:05:51.351Z,59.80
2019-03-22T10:08:21.637Z,59.80
2019-03-22T10:10:52.046Z,57.80
2019-03-22T10:13:22.381Z,58.70
2019-03-22T10:15:52.627Z,57.00
2019-03-22T10:18:22.965Z,56.40
2019-03-22T10:20:53.267Z,54.90
2019-03-22T10:23:23.635Z,52.60
2019-03-22T10:25:53.904Z,52.20
2019-03-22T10:28:24.254Z,53.10
2019-03-22T10:30:54.692Z,53.00
2019-03-22T10:33:25.129Z,53.90
2019-03-22T10:35:55.822Z,54.10
2019-03-22T10:38:31.781Z,54.00
2019-03-22T10:40:58.250Z,53.60
2019-03-22T10:43:28.613Z,54.20
2019-03-22T10:45:58.915Z,54.20
2019-03-22T10:48:29.269Z,53.00
2019-03-22T10:50:59.555Z,53.00
2019-03-22T10:53:29.993Z,51.60
2019-03-22T10:56:00.392Z,54.30
2019-03-22T10:58:30.716Z,55.30
2019-03-22T11:01:01.282Z,52.40
2019-03-22T11:03:31.633Z,53.20
2019-03-22T11:06:02.070Z,52.20
2019-03-22T11:08:32.340Z,51.90
2019-03-22T11:11:02.643Z,52.80
2019-03-22T11:13:33.098Z,51.80
2019-03-22T11:16:03.527Z,52.70
2019-03-22T11:18:37.533Z,52.20
2019-03-22T11:21:06.082Z,52.50
2019-03-22T11:23:36.525Z,52.00
2019-03-22T11:26:06.961Z,54.20
2019-03-22T11:28:37.293Z,52.40
2019-03-22T11:31:07.799Z,50.70
2019-03-22T11:33:38.130Z,52.90
2019-03-22T11:36:08.531Z,51.90
2019-03-22T11:38:38.817Z,52.10
2019-03-22T11:41:09.262Z,53.30
2019-03-22T11:43:40.607Z,52.00
2019-03-22T11:46:10.849Z,52.30
2019-03-22T11:48:41.163Z,53.30
2019-03-22T11:51:11.520Z,53.00
2019-03-22T11:53:42.018Z,51.80
2019-03-22T11:56:12.404Z,52.50
2019-03-22T11:58:42.690Z,53.00
2019-03-22T12:01:20.314Z,52.70
2019-03-22T12:03:45.013Z,53.70
2019-03-22T12:06:15.435Z,53.20
2019-03-22T12:08:45.748Z,52.70
2019-03-22T12:11:16.084Z,52.60
2019-03-22T12:13:46.437Z,51.60
2019-03-22T12:16:16.766Z,53.30
2019-03-22T12:18:47.071Z,54.00
2019-03-22T12:21:17.457Z,54.40
2019-03-22T12:23:47.883Z,52.50
2019-03-22T12:26:18.177Z,52.80
2019-03-22T12:28:48.539Z,51.70
2019-03-22T12:31:19.547Z,52.30
2019-03-22T12:33:50.012Z,50.50
2019-03-22T12:36:20.281Z,52.00
2019-03-22T12:38:50.694Z,53.30
2019-03-22T12:41:21.056Z,52.60
2019-03-22T12:43:51.380Z,50.80
2019-03-22T12:46:21.818Z,50.20
2019-03-22T12:48:52.243Z,51.40
2019-03-22T12:51:22.613Z,51.20
2019-03-22T12:53:52.873Z,50.60
2019-03-22T12:56:23.379Z,50.20
2019-03-22T12:58:53.682Z,50.30
2019-03-22T13:01:24.017Z,49.00
2019-03-22T13:03:54.359Z,49.10
2019-03-22T13:06:24.645Z,48.80
2019-03-22T13:08:55.037Z,49.60
2019-03-22T13:11:25.430Z,49.00
2019-03-22T13:13:55.768Z,48.90
2019-03-22T13:16:26.143Z,48.30
2019-03-22T13:18:56.529Z,47.00
2019-03-22T13:21:26.841Z,47.40
2019-03-22T13:23:57.180Z,48.70
2019-03-22T13:26:27.564Z,48.00
2019-03-22T13:28:57.959Z,48.40
2019-03-22T13:31:28.343Z,48.00
2019-03-22T13:33:58.710Z,48.70
2019-03-22T13:36:29.002Z,49.30
2019-03-22T13:38:59.318Z,48.30
2019-03-22T13:41:31.100Z,48.60
2019-03-22T13:44:01.713Z,49.40
2019-03-22T13:46:39.955Z,49.20
2019-03-22T13:49:04.227Z,48.00
2019-03-22T13:51:34.510Z,47.70
2019-03-22T13:54:04.822Z,48.00
2019-03-22T13:56:35.153Z,47.70
2019-03-22T13:59:05.495Z,47.50
2019-03-22T14:01:35.802Z,48.40
2019-03-22T14:04:06.216Z,49.00
2019-03-22T14:06:36.606Z,49.30
2019-03-22T14:09:09.057Z,49.30
2019-03-22T14:11:39.397Z,48.40
2019-03-22T14:14:09.701Z,46.60
2019-03-22T14:16:40.100Z,48.40
2019-03-22T14:19:11.522Z,48.60
2019-03-22T14:21:42.276Z,48.10
2019-03-22T14:24:12.534Z,48.70
2019-03-22T14:26:42.894Z,49.00
2019-03-22T14:29:13.276Z,48.70
2019-03-22T14:31:43.600Z,48.40
2019-03-22T14:34:13.965Z,46.90
2019-03-22T14:36:44.361Z,46.30
2019-03-22T14:39:14.755Z,46.90
2019-03-22T14:41:45.154Z,47.80
2019-03-22T14:44:24.853Z,47.10
2019-03-22T14:46:47.511Z,47.20
2019-03-22T14:49:17.867Z,46.90
2019-03-22T14:51:48.247Z,46.70
2019-03-22T14:54:18.597Z,47.50
2019-03-22T14:56:48.882Z,47.50
2019-03-22T14:59:19.235Z,47.50
2019-03-22T15:01:49.672Z,46.80
2019-03-22T15:04:19.966Z,47.10
2019-03-22T15:06:50.766Z,47.90
2019-03-22T15:09:21.122Z,47.60
2019-03-22T15:11:51.538Z,47.10
2019-03-22T15:14:40.414Z,47.70
2019-03-22T15:17:28.609Z,46.90
2019-03-22T15:20:23.746Z,46.50
2019-03-22T15:23:13.434Z,46.60
2019-03-22T15:26:08.414Z,46.80
2019-03-22T15:28:56.596Z,47.00
2019-03-22T15:31:49.122Z,46.30
2019-03-22T15:34:37.003Z,47.00
2019-03-22T15:37:25.007Z,47.00
2019-03-22T15:40:00.675Z,47.80
2019-03-22T15:42:31.239Z,47.00
2019-03-22T15:45:01.702Z,46.60
2019-03-22T15:47:32.458Z,47.90
2019-03-22T15:50:02.933Z,48.10
2019-03-22T15:52:33.275Z,48.10
2019-03-22T15:55:03.738Z,47.60
2019-03-22T15:57:34.118Z,48.30
2019-03-22T16:00:06.132Z,48.00
2019-03-22T16:02:36.435Z,48.30
2019-03-22T16:05:08.947Z,47.20
2019-03-22T16:07:39.294Z,48.20
2019-03-22T16:10:11.200Z,48.80
2019-03-22T16:12:41.626Z,49.10
2019-03-22T16:15:12.162Z,48.30
2019-03-22T16:17:42.616Z,48.30
2019-03-22T16:20:13.288Z,48.30
2019-03-22T16:22:43.642Z,48.10
2019-03-22T16:25:14.438Z,48.10
2019-03-22T16:27:44.802Z,48.70
2019-03-22T16:30:15.495Z,49.00
2019-03-22T16:32:45.879Z,49.20
2019-03-22T16:35:16.256Z,49.40
2019-03-22T16:37:46.681Z,49.30
2019-03-22T16:40:24.108Z,49.70
2019-03-22T16:42:49.193Z,50.30
2019-03-22T16:45:38.183Z,50.60
2019-03-22T16:48:08.638Z,51.20
2019-03-22T16:50:38.903Z,51.50
2019-03-22T16:53:09.235Z,51.30
2019-03-22T16:55:40.186Z,51.60
2019-03-22T16:58:10.606Z,51.40
2019-03-22T17:00:40.975Z,51.80
2019-03-22T17:03:11.360Z,51.80
2019-03-22T17:05:41.629Z,51.50
2019-03-22T17:08:12.003Z,52.00
2019-03-22T17:10:42.423Z,52.00
2019-03-22T17:13:12.820Z,52.30
2019-03-22T17:15:43.147Z,54.80
2019-03-22T17:18:13.463Z,57.20
2019-03-22T17:20:44.358Z,58.60
2019-03-22T17:23:14.669Z,59.80
2019-03-22T17:25:45.665Z,61.20
2019-03-22T17:28:16.082Z,62.10
2019-03-22T17:30:46.402Z,62.60
2019-03-22T17:33:16.700Z,65.40
2019-03-22T17:35:47.643Z,67.20
2019-03-22T17:38:18.126Z,64.90
2019-03-22T17:40:48.526Z,64.80
2019-03-22T17:43:18.803Z,65.60
2019-03-22T17:45:49.116Z,66.30
2019-03-22T17:48:19.466Z,66.80
2019-03-22T17:50:49.854Z,67.40
2019-03-22T17:53:20.231Z,67.30
2019-03-22T17:55:50.611Z,67.90
2019-03-22T17:58:20.925Z,69.10
2019-03-22T18:00:52.268Z,69.60
2019-03-22T18:03:22.522Z,69.70
2019-03-22T18:05:52.886Z,70.20
2019-03-22T18:08:23.237Z,71.80
2019-03-22T18:10:53.470Z,71.80
2019-03-22T18:13:23.818Z,73.30
2019-03-22T18:15:54.601Z,73.80
2019-03-22T18:18:24.907Z,74.10
2019-03-22T18:20:56.758Z,74.80
2019-03-22T18:23:35.402Z,74.10
2019-03-22T18:25:58.993Z,73.60
2019-03-22T18:28:29.386Z,74.50
2019-03-22T18:30:59.733Z,76.60
2019-03-22T18:33:30.600Z,77.70
2019-03-22T18:36:00.896Z,79.10
2019-03-22T18:38:31.250Z,77.40
2019-03-22T18:41:01.680Z,76.80
2019-03-22T18:43:32.120Z,76.80
2019-03-22T18:46:02.449Z,77.70
2019-03-22T18:48:32.931Z,79.50
2019-03-22T18:51:03.258Z,82.10
2019-03-22T18:53:33.580Z,84.00
2019-03-22T18:56:03.895Z,86.00
2019-03-22T18:58:34.297Z,87.50
2019-03-22T19:01:04.605Z,88.50
2019-03-22T19:03:34.997Z,89.20
2019-03-22T19:06:06.096Z,90.70
2019-03-22T19:08:36.452Z,91.60
2019-03-22T19:11:06.825Z,93.20
2019-03-22T19:13:37.143Z,94.40
2019-03-22T19:16:07.468Z,95.20
2019-03-22T19:18:37.819Z,95.40
2019-03-22T19:21:08.206Z,95.80
2019-03-22T19:23:38.517Z,96.20
2019-03-22T19:26:11.374Z,96.70
2019-03-22T19:28:41.722Z,96.10
2019-03-22T19:31:12.154Z,95.90
2019-03-22T19:33:42.486Z,95.40
2019-03-22T19:36:12.827Z,95.60
2019-03-22T19:38:43.130Z,95.70
2019-03-22T19:41:13.462Z,96.30
2019-03-22T19:43:43.873Z,96.00
2019-03-22T19:46:14.244Z,97.00
2019-03-22T19:48:44.630Z,97.20
2019-03-22T19:51:15.039Z,96.70
2019-03-22T19:53:45.320Z,96.20
2019-03-22T19:56:15.682Z,97.50
2019-03-22T19:58:46.050Z,97.40
2019-03-22T20:01:16.457Z,97.50
2019-03-22T20:03:46.957Z,97.50
2019-03-22T20:06:17.273Z,97.20
2019-03-22T20:08:47.578Z,97.60
2019-03-22T20:11:17.974Z,97.80
2019-03-22T20:13:48.334Z,98.30
2019-03-22T20:16:18.663Z,99.20
2019-03-22T20:18:49.013Z,99.20
2019-03-22T20:21:19.344Z,99.90
2019-03-22T20:23:53.829Z,98.50
2019-03-22T20:26:21.646Z,98.50
2019-03-22T20:28:52.151Z,98.40
2019-03-22T20:31:22.446Z,98.10
2019-03-22T20:33:54.533Z,97.50
2019-03-22T20:36:25.077Z,97.40
2019-03-22T20:38:55.446Z,97.00
2019-03-22T20:41:25.757Z,96.50
2019-03-22T20:43:56.199Z,95.00
2019-03-22T20:46:26.635Z,93.80
2019-03-22T20:48:57.053Z,93.20
2019-03-22T20:51:27.367Z,92.80
2019-03-22T20:53:57.741Z,92.60
2019-03-22T20:56:28.183Z,90.80
2019-03-22T20:58:58.547Z,92.60
2019-03-22T21:01:29.006Z,90.80
2019-03-22T21:03:59.258Z,90.00
2019-03-22T21:06:29.633Z,90.10
2019-03-22T21:08:59.955Z,91.00
2019-03-22T21:11:30.281Z,91.50
2019-03-22T21:14:00.613Z,92.00
2019-03-22T21:16:30.986Z,92.60
2019-03-22T21:19:01.306Z,93.70
2019-03-22T21:21:36.259Z,93.30
2019-03-22T21:24:03.879Z,92.80
2019-03-22T21:26:34.405Z,92.10
2019-03-22T21:29:04.757Z,92.40
2019-03-22T21:31:35.184Z,92.80
2019-03-22T21:34:05.635Z,93.10
2019-03-22T21:36:36.053Z,93.80
2019-03-22T21:39:08.153Z,94.90
2019-03-22T21:41:38.485Z,95.40
2019-03-22T21:44:08.773Z,95.30
2019-03-22T21:46:39.264Z,94.80
2019-03-22T21:49:09.814Z,95.40
2019-03-22T21:51:40.093Z,94.60
2019-03-22T21:54:10.397Z,95.10
2019-03-22T21:56:40.755Z,95.20
2019-03-22T21:59:11.178Z,95.20
2019-03-22T22:01:41.652Z,93.90
2019-03-22T22:04:12.101Z,94.60
2019-03-22T22:06:42.421Z,94.90
2019-03-22T22:09:12.954Z,96.20
2019-03-22T22:11:43.340Z,96.80
2019-03-22T22:14:13.674Z,97.60
2019-03-22T22:16:44.097Z,98.10
2019-03-22T22:19:14.475Z,99.00
2019-03-22T22:21:44.850Z,99.40
2019-03-22T22:24:15.226Z,99.90
2019-03-22T22:26:47.863Z,99.90
2019-03-22T22:29:18.219Z,99.90
2019-03-22T22:31:48.603Z,99.90
2019-03-22T22:34:18.893Z,99.90
2019-03-22T22:36:49.157Z,99.90
2019-03-22T22:39:19.549Z,99.90
2019-03-22T22:41:49.948Z,99.90
2019-03-22T22:44:20.295Z,99.90
2019-03-22T22:46:50.670Z,99.90
2019-03-22T22:49:20.977Z,99.90
2019-03-22T22:51:51.373Z,99.90
2019-03-22T22:54:21.752Z,99.90
2019-03-22T22:56:52.043Z,99.90
2019-03-22T22:59:22.324Z,99.90
2019-03-22T23:01:52.954Z,99.90
2019-03-22T23:04:23.322Z,99.90
2019-03-22T23:06:53.729Z,99.90
2019-03-22T23:09:24.094Z,99.90
2019-03-22T23:11:54.570Z,99.90
2019-03-22T23:14:24.964Z,99.90
2019-03-22T23:16:55.328Z,99.90
2019-03-22T23:19:25.740Z,99.90
2019-03-22T23:21:56.093Z,99.90
2019-03-22T23:25:13.763Z,99.90
2019-03-22T23:27:44.154Z,99.90
2019-03-22T23:30:14.656Z,99.90
2019-03-22T23:32:45.060Z,99.90
2019-03-22T23:35:15.699Z,99.90
2019-03-22T23:37:46.079Z,99.90
2019-03-22T23:40:16.617Z,99.90
2019-03-22T23:42:46.994Z,99.90
2019-03-22T23:45:17.413Z,99.90
2019-03-22T23:47:47.820Z,99.90
2019-03-22T23:50:18.207Z,99.90
2019-03-22T23:52:48.626Z,99.90
2019-03-22T23:55:18.983Z,99.90
2019-03-22T23:57:49.321Z,99.90
